Time;durP1;ratioP1;P1;durP2;ratioP2;P2;SDS_P1;SDS_P2;PMS_P1;PMS_P2;Temp;Humidity;BMP_temperature;BMP_pressure;BME280_temperature;BME280_humidity;BME280_pressure;Samples;Min_cycle;Max_cycle;Signal;HPM_P1;HPM_P2
2021/12/12 09:31:25;;;;;;;226.25;53.30;;;7.20;99.90;;;;;;5126763;27;20132;-67
2021/12/12 09:33:56;;;;;;;229.05;55.85;;;7.20;99.90;;;;;;5111974;28;20056;-67
2021/12/12 09:36:34;;;;;;;220.43;56.47;;;7.10;99.90;;;;;;5090839;28;20048;-66
2021/12/12 09:39:09;;;;;;;228.45;57.80;;;7.20;99.90;;;;;;5091023;28;20098;-65
2021/12/12 09:42:22;;;;;;;201.13;54.22;;;7.20;99.90;;;;;;5091875;28;20517;-65
2021/12/12 09:45:16;;;;;;;193.57;52.67;;;7.20;99.90;;;;;;5068858;28;20059;-66
2021/12/12 09:51:14;;;;;;;165.13;46.33;;;7.30;99.90;;;;;;5072514;28;20044;-67
2021/12/12 09:53:58;;;;;;;154.98;45.53;;;7.30;99.90;;;;;;5073384;28;20052;-67
2021/12/12 09:56:56;;;;;;;159.10;44.42;;;7.30;99.90;;;;;;5091047;28;20063;-65
2021/12/12 09:59:50;;;;;;;148.57;42.85;;;7.40;99.90;;;;;;5073049;28;20508;-66
2021/12/12 10:02:49;;;;;;;156.50;47.40;;;7.40;99.90;;;;;;5090688;28;20056;-65
2021/12/12 10:05:18;;;;;;;152.98;43.08;;;7.40;99.90;;;;;;5072288;28;20067;-67
2021/12/12 10:07:50;;;;;;;153.95;40.95;;;7.40;99.90;;;;;;5072875;28;20095;-67
2021/12/12 10:10:31;;;;;;;136.40;40.08;;;7.40;99.90;;;;;;5072077;28;20120;-66
2021/12/12 10:13:20;;;;;;;141.15;39.13;;;7.50;99.90;;;;;;5073160;28;20472;-66
2021/12/12 10:15:54;;;;;;;141.05;39.05;;;7.50;99.90;;;;;;5090292;28;20204;-65
2021/12/12 10:18:38;;;;;;;142.00;39.70;;;7.60;99.90;;;;;;5090484;28;20084;-67
2021/12/12 10:21:32;;;;;;;135.60;38.70;;;7.60;99.90;;;;;;5072637;28;20066;-67
2021/12/12 10:24:12;;;;;;;130.77;36.28;;;7.60;99.90;;;;;;5072062;28;20052;-67
2021/12/12 10:26:43;;;;;;;131.10;50.33;;;7.60;99.90;;;;;;5093206;28;20437;-65
2021/12/12 10:29:12;;;;;;;121.40;38.80;;;7.60;99.90;;;;;;5079189;28;20558;-66
2021/12/12 10:31:50;;;;;;;120.72;48.42;;;7.70;99.90;;;;;;5060803;28;20401;-66
2021/12/12 10:34:25;;;;;;;111.40;35.50;;;7.80;99.90;;;;;;5076355;28;20147;-66
2021/12/12 10:37:14;;;;;;;121.35;47.45;;;7.80;99.90;;;;;;5077972;28;20099;-65
2021/12/12 10:39:44;;;;;;;194.57;104.32;;;7.80;99.90;;;;;;5068853;28;20053;-67
2021/12/12 10:42:16;;;;;;;122.63;47.03;;;7.90;99.90;;;;;;5067075;28;20526;-66
2021/12/12 10:45:08;;;;;;;94.65;33.83;;;7.90;99.90;;;;;;5060232;28;20075;-66
2021/12/12 10:47:54;;;;;;;118.60;44.95;;;7.90;99.90;;;;;;5056235;28;20056;-68
2021/12/12 10:50:42;;;;;;;118.05;40.25;;;7.90;99.90;;;;;;5056141;28;20056;-66
2021/12/12 10:53:27;;;;;;;106.15;32.28;;;7.90;99.90;;;;;;5056331;28;20041;-63
2021/12/12 10:56:05;;;;;;;110.13;34.97;;;7.90;99.90;;;;;;5056250;28;20095;-66
2021/12/12 10:58:52;;;;;;;117.18;38.88;;;8.00;99.90;;;;;;5056252;28;20049;-66
2021/12/12 11:01:17;;;;;;;103.78;35.05;;;8.10;99.90;;;;;;5062266;28;20045;-66
2021/12/12 11:04:18;;;;;;;92.05;35.25;;;8.10;99.90;;;;;;5053233;28;20052;-66
2021/12/12 11:06:50;;;;;;;103.68;36.60;;;8.10;99.90;;;;;;5036508;28;20049;-65
2021/12/12 11:09:36;;;;;;;86.85;29.77;;;8.10;99.90;;;;;;5050935;28;20065;-65
2021/12/12 11:12:08;;;;;;;68.75;27.33;;;8.20;99.90;;;;;;5035915;28;20049;-66
2021/12/12 11:14:47;;;;;;;80.68;27.25;;;8.20;99.90;;;;;;5034985;28;20111;-65
2021/12/12 11:17:19;;;;;;;74.00;27.75;;;8.20;99.90;;;;;;5018583;28;20508;-64
2021/12/12 11:20:04;;;;;;;63.85;26.92;;;8.20;99.90;;;;;;5034420;28;20057;-68
2021/12/12 11:22:45;;;;;;;65.45;24.83;;;8.30;99.90;;;;;;5055212;28;20394;-64
2021/12/12 11:25:30;;;;;;;59.95;23.98;;;8.30;99.90;;;;;;5035094;28;20103;-65
2021/12/12 11:28:23;;;;;;;66.13;22.65;;;8.30;99.90;;;;;;5042028;28;20102;-66
2021/12/12 11:31:12;;;;;;;61.75;23.67;;;8.40;99.90;;;;;;5062566;28;20084;-66
2021/12/12 11:33:43;;;;;;;56.63;23.05;;;8.40;99.90;;;;;;5075069;28;20110;-64
2021/12/12 11:36:13;;;;;;;63.53;24.13;;;8.40;99.90;;;;;;5075052;28;20488;-66
2021/12/12 11:39:03;;;;;;;56.85;22.30;;;8.40;99.90;;;;;;5057568;28;20044;-66
2021/12/12 11:41:48;;;;;;;65.13;23.55;;;8.40;99.90;;;;;;5086290;28;20048;-66
2021/12/12 11:44:23;;;;;;;61.30;22.95;;;8.40;99.90;;;;;;5089380;28;20450;-66
2021/12/12 11:46:56;;;;;;;52.60;21.20;;;8.40;99.90;;;;;;5048953;28;20110;-67
2021/12/12 11:49:39;;;;;;;51.88;21.48;;;8.40;99.90;;;;;;5055033;28;20045;-67
2021/12/12 11:52:13;;;;;;;61.33;22.35;;;8.40;99.90;;;;;;5046173;28;20052;-65
2021/12/12 11:55:00;;;;;;;61.40;23.77;;;8.40;99.90;;;;;;5057398;28;20052;-66
2021/12/12 11:57:32;;;;;;;59.50;24.42;;;8.40;99.90;;;;;;5060292;28;20217;-66
2021/12/12 12:00:30;;;;;;;62.65;24.42;;;8.40;99.90;;;;;;5074983;28;20045;-67
2021/12/12 12:03:21;;;;;;;67.53;23.27;;;8.40;99.90;;;;;;5013419;28;20366;-66
2021/12/12 12:06:01;;;;;;;57.33;22.13;;;8.40;99.90;;;;;;5000437;28;20136;-66
2021/12/12 12:08:38;;;;;;;60.03;22.67;;;8.50;99.90;;;;;;5055223;28;20376;-68
2021/12/12 12:11:38;;;;;;;55.78;21.80;;;8.50;99.90;;;;;;5036916;28;20508;-67
2021/12/12 12:14:16;;;;;;;60.55;22.15;;;8.50;99.90;;;;;;5054572;28;20094;-66
2021/12/12 12:16:54;;;;;;;54.80;22.00;;;8.50;99.90;;;;;;5036678;28;20492;-67
2021/12/12 12:19:39;;;;;;;60.55;23.42;;;8.60;99.90;;;;;;5055070;28;20037;-66
2021/12/12 12:22:08;;;;;;;57.60;22.10;;;8.60;99.90;;;;;;5037122;28;20140;-67
2021/12/12 12:24:54;;;;;;;64.30;22.42;;;8.60;99.90;;;;;;5054791;28;20045;-67
2021/12/12 12:27:40;;;;;;;62.70;22.40;;;8.60;99.90;;;;;;5034324;28;20089;-66
2021/12/12 12:30:45;;;;;;;52.78;21.80;;;8.50;99.90;;;;;;5052062;28;20110;-66
2021/12/12 12:33:13;;;;;;;57.90;21.83;;;8.60;99.90;;;;;;5054016;28;20063;-66
2021/12/12 12:36:14;;;;;;;60.03;22.17;;;8.60;99.90;;;;;;5037044;28;20041;-66
2021/12/12 12:39:14;;;;;;;62.75;23.25;;;8.60;99.90;;;;;;5016663;28;20068;-66
2021/12/12 12:41:58;;;;;;;59.50;21.52;;;8.70;99.90;;;;;;5054000;28;20393;-65
2021/12/12 12:44:58;;;;;;;53.28;20.88;;;8.70;99.90;;;;;;5054166;28;20056;-67
2021/12/12 12:48:01;;;;;;;54.50;21.15;;;8.70;99.90;;;;;;5036326;28;20061;-66
2021/12/12 12:50:42;;;;;;;54.33;21.25;;;8.80;99.90;;;;;;5053940;28;20049;-66
2021/12/12 12:53:29;;;;;;;58.08;22.95;;;8.80;99.90;;;;;;5054530;28;20408;-66
2021/12/12 12:56:28;;;;;;;45.47;19.95;;;8.80;99.90;;;;;;5054307;28;20136;-66
2021/12/12 12:59:23;;;;;;;63.85;32.85;;;8.80;99.90;;;;;;5036470;28;20070;-64
2021/12/12 13:02:02;;;;;;;58.63;25.38;;;8.90;99.90;;;;;;5036071;28;20048;-66
2021/12/12 13:04:47;;;;;;;58.72;21.90;;;8.90;99.90;;;;;;5036560;28;20469;-65
2021/12/12 13:07:31;;;;;;;57.13;23.83;;;8.90;99.90;;;;;;5036340;28;20057;-66
2021/12/12 13:10:08;;;;;;;57.05;21.67;;;8.90;99.90;;;;;;5054764;28;20040;-67
2021/12/12 13:12:56;;;;;;;56.90;20.73;;;8.90;99.90;;;;;;5065411;28;20082;-68
2021/12/12 13:15:29;;;;;;;57.42;21.33;;;8.90;99.90;;;;;;5083076;28;20074;-66
2021/12/12 13:18:17;;;;;;;51.35;19.85;;;8.90;99.90;;;;;;5062013;28;20053;-66
2021/12/12 13:21:10;;;;;;;55.17;20.13;;;8.90;99.90;;;;;;5083570;28;20048;-67
2021/12/12 13:24:07;;;;;;;53.65;20.58;;;8.90;99.90;;;;;;5081621;28;20083;-67
2021/12/12 13:26:41;;;;;;;53.75;19.17;;;8.90;99.90;;;;;;5080795;28;20089;-66
2021/12/12 13:29:35;;;;;;;48.08;19.80;;;8.90;99.90;;;;;;5061246;28;20049;-66
2021/12/12 13:32:14;;;;;;;51.55;20.52;;;8.90;99.90;;;;;;5065300;28;20118;-67
2021/12/12 13:34:45;;;;;;;64.95;30.83;;;8.90;99.90;;;;;;5057203;28;20510;-67
2021/12/12 13:37:30;;;;;;;53.80;19.05;;;8.90;99.90;;;;;;5079691;28;20111;-66
2021/12/12 13:40:11;;;;;;;54.22;18.92;;;8.90;99.90;;;;;;5078607;28;20476;-66
2021/12/12 13:42:39;;;;;;;45.60;18.10;;;8.90;99.90;;;;;;5060573;28;20408;-67
2021/12/12 13:45:08;;;;;;;45.65;18.38;;;8.90;99.90;;;;;;5072426;28;20063;-65
2021/12/12 13:47:36;;;;;;;53.65;23.58;;;8.80;99.90;;;;;;5078267;28;20044;-65
2021/12/12 13:50:07;;;;;;;52.85;19.73;;;8.80;99.90;;;;;;5062297;28;20044;-68
2021/12/12 13:52:36;;;;;;;40.75;17.55;;;8.90;99.90;;;;;;5064491;28;20388;-66
2021/12/12 13:55:18;;;;;;;51.58;20.77;;;8.90;99.90;;;;;;5083521;28;20500;-67
2021/12/12 13:57:50;;;;;;;38.88;16.50;;;8.90;99.90;;;;;;5074507;28;20119;-65
2021/12/12 14:00:28;;;;;;;40.90;18.05;;;8.80;99.90;;;;;;5093265;28;20048;-65
2021/12/12 14:03:05;;;;;;;40.13;16.88;;;8.90;99.90;;;;;;5093896;28;20052;-66
2021/12/12 14:05:39;;;;;;;40.28;18.15;;;8.90;99.90;;;;;;5093194;28;20048;-66
2021/12/12 14:08:16;;;;;;;44.95;18.05;;;8.80;99.90;;;;;;5076271;28;20055;-65
2021/12/12 14:10:50;;;;;;;45.17;17.45;;;8.90;99.90;;;;;;5089861;28;20040;-66
2021/12/12 14:13:26;;;;;;;43.25;22.40;;;8.80;99.90;;;;;;5071202;28;20048;-66
2021/12/12 14:16:05;;;;;;;39.55;16.88;;;8.90;99.90;;;;;;5075554;28;20411;-65
2021/12/12 14:18:37;;;;;;;36.63;16.40;;;8.90;99.90;;;;;;5085879;28;20048;-66
2021/12/12 14:21:04;;;;;;;33.42;15.32;;;8.80;99.90;;;;;;5083125;28;20040;-66
2021/12/12 14:23:32;;;;;;;34.95;18.02;;;8.90;99.90;;;;;;5086187;28;20118;-66
2021/12/12 14:26:07;;;;;;;39.78;15.43;;;8.90;99.90;;;;;;5087309;28;20062;-66
2021/12/12 14:28:37;;;;;;;35.83;16.60;;;8.90;99.90;;;;;;5086766;28;20045;-67
2021/12/12 14:31:06;;;;;;;40.13;16.23;;;8.90;99.90;;;;;;5082609;28;20057;-67
2021/12/12 14:33:39;;;;;;;46.78;16.80;;;8.90;99.90;;;;;;5084194;28;20051;-67
2021/12/12 14:36:18;;;;;;;39.90;18.35;;;8.90;99.90;;;;;;5080624;28;20049;-67
2021/12/12 14:38:45;;;;;;;43.22;21.17;;;8.90;99.90;;;;;;5080919;28;20397;-67
2021/12/12 14:41:12;;;;;;;35.28;17.33;;;8.90;99.90;;;;;;5066231;28;20058;-66
2021/12/12 14:43:51;;;;;;;40.35;18.88;;;8.80;99.90;;;;;;5086235;28;20048;-65
2021/12/12 14:46:21;;;;;;;42.92;19.48;;;8.80;99.90;;;;;;5078847;28;20049;-66
2021/12/12 14:48:55;;;;;;;36.83;17.20;;;8.80;99.90;;;;;;5076111;28;20056;-67
2021/12/12 14:51:24;;;;;;;41.17;16.88;;;8.80;99.90;;;;;;5076187;28;20081;-66
2021/12/12 14:53:55;;;;;;;36.88;15.60;;;8.80;99.90;;;;;;5076063;28;20197;-66
2021/12/12 14:56:33;;;;;;;34.03;14.98;;;8.80;99.90;;;;;;5083829;28;20476;-66
2021/12/12 14:59:03;;;;;;;36.53;15.25;;;8.80;99.90;;;;;;5074485;28;20068;-65
2021/12/12 15:01:43;;;;;;;35.80;14.40;;;8.80;99.90;;;;;;5059971;28;20098;-65
2021/12/12 15:04:16;;;;;;;29.40;13.73;;;8.80;99.90;;;;;;5055643;28;20057;-66
2021/12/12 15:06:56;;;;;;;32.63;14.02;;;8.80;99.90;;;;;;5073479;28;20048;-66
